Time;durP1;ratioP1;P1;durP2;ratioP2;P2;SDS_P1;SDS_P2;PMS_P1;PMS_P2;Temp;Humidity;BMP_temperature;BMP_pressure;BME280_temperature;BME280_humidity;BME280_pressure;Samples;Min_cycle;Max_cycle;Signal;HPM_P1;HPM_P2
2023/08/12 00:00:44;;;;;;;7.90;4.00;;;;;;;20.88;59.23;100557.73;105404;1253;61506;-59
2023/08/12 00:03:11;;;;;;;5.70;3.80;;;;;;;20.79;59.36;100554.17;105351;1254;63836;-57
2023/08/12 00:05:39;;;;;;;8.20;4.20;;;;;;;20.69;59.57;100554.70;105255;1254;60437;-56
2023/08/12 00:08:07;;;;;;;7.50;4.80;;;;;;;20.67;59.58;100551.66;105356;1254;60613;-57
2023/08/12 00:10:34;;;;;;;7.60;4.20;;;;;;;20.71;59.50;100550.27;105297;1258;64958;-57
2023/08/12 00:13:02;;;;;;;6.90;4.20;;;;;;;20.75;59.58;100550.46;105411;1254;61349;-58
2023/08/12 00:15:30;;;;;;;6.60;4.00;;;;;;;20.77;59.52;100544.89;105351;1254;64338;-56
2023/08/12 00:17:57;;;;;;;7.30;4.50;;;;;;;20.77;59.43;100545.67;105284;1254;60495;-56
2023/08/12 00:20:25;;;;;;;7.90;4.50;;;;;;;20.73;59.58;100544.11;105348;1259;60488;-57
2023/08/12 00:22:52;;;;;;;6.40;3.70;;;;;;;20.75;59.58;100543.91;105435;1259;65012;-58
2023/08/12 00:25:20;;;;;;;10.00;4.60;;;;;;;20.77;59.56;100546.90;105282;1253;61368;-55
2023/08/12 00:27:47;;;;;;;9.00;4.30;;;;;;;20.77;59.50;100542.02;105279;1253;63866;-57
2023/08/12 00:30:16;;;;;;;7.80;4.60;;;;;;;20.75;59.54;100544.61;105470;1253;60539;-58
2023/08/12 00:32:43;;;;;;;6.40;3.90;;;;;;;20.64;59.51;100551.42;105198;1260;60558;-58
2023/08/12 00:35:11;;;;;;;8.10;3.70;;;;;;;20.47;59.85;100557.33;105318;1254;63811;-62
2023/08/12 00:37:39;;;;;;;7.40;4.10;;;;;;;20.30;60.23;100558.54;105374;1253;61448;-63
2023/08/12 00:40:07;;;;;;;6.60;4.00;;;;;;;20.13;60.67;100557.34;105284;1257;63826;-62
2023/08/12 00:42:35;;;;;;;11.30;5.40;;;;;;;19.99;60.99;100556.13;105547;1254;60483;-64
2023/08/12 00:45:03;;;;;;;10.90;4.90;;;;;;;19.89;61.15;100560.32;105409;1254;60485;-65
2023/08/12 00:47:31;;;;;;;8.00;4.10;;;;;;;19.81;61.09;100566.19;105906;1259;76033;-64
2023/08/12 00:49:59;;;;;;;6.90;4.80;;;;;;;19.74;61.36;100564.02;105752;1256;61566;-60
2023/08/12 00:52:26;;;;;;;8.00;4.90;;;;;;;19.65;61.58;100559.10;105345;1254;63677;-62
2023/08/12 00:54:54;;;;;;;7.60;4.80;;;;;;;19.58;61.73;100562.30;105367;1257;60848;-63
2023/08/12 00:57:22;;;;;;;7.50;4.60;;;;;;;19.53;62.01;100560.92;105259;1258;60392;-63
2023/08/12 00:59:50;;;;;;;7.00;4.30;;;;;;;19.49;62.01;100562.52;105304;1259;65340;-62
2023/08/12 01:02:17;;;;;;;9.60;4.30;;;;;;;19.49;61.96;100564.11;105361;1259;61822;-62
2023/08/12 01:04:45;;;;;;;8.80;4.30;;;;;;;19.48;61.96;100561.98;105481;1257;63798;-66
2023/08/12 01:07:14;;;;;;;7.60;5.20;;;;;;;19.42;61.83;100562.46;105539;1256;60563;-60
2023/08/12 01:09:41;;;;;;;8.40;4.80;;;;;;;19.35;62.00;100561.48;105372;1254;60434;-64
2023/08/12 01:12:13;;;;;;;6.80;4.30;;;;;;;19.31;61.94;100562.66;105399;1256;63790;-64
2023/08/12 01:15:07;;;;;;;7.70;4.90;;;;;;;19.28;61.87;100563.56;105378;1253;61358;-66
2023/08/12 01:17:36;;;;;;;7.20;4.70;;;;;;;19.25;61.49;100564.59;105414;1257;63742;-65
2023/08/12 01:20:08;;;;;;;6.80;4.30;;;;;;;19.23;61.38;100567.48;105481;1254;60505;-64
2023/08/12 01:22:39;;;;;;;6.60;4.60;;;;;;;19.22;61.31;100567.05;105589;1254;60585;-66
2023/08/12 01:25:07;;;;;;;7.30;4.50;;;;;;;19.21;61.24;100566.81;105484;1254;65075;-67
2023/08/12 01:27:38;;;;;;;8.20;4.50;;;;;;;19.18;61.31;100568.14;105370;1254;61309;-65
2023/08/12 01:30:06;;;;;;;11.10;5.10;;;;;;;19.12;61.02;100565.22;105414;1254;63839;-66
2023/08/12 01:32:43;;;;;;;7.70;4.40;;;;;;;19.06;61.14;100563.73;105425;1259;60562;-65
2023/08/12 01:35:17;;;;;;;7.50;4.60;;;;;;;19.03;61.17;100564.77;104892;1255;399486;-62
2023/08/12 01:39:33;;;;;;;8.40;4.70;;;;;;;18.77;61.93;100568.22;102651;1288;601766;-66
2023/08/12 01:42:01;;;;;;;8.20;4.60;;;;;;;18.94;61.26;100562.38;104703;1263;59276;-59
2023/08/12 01:44:28;;;;;;;8.80;4.90;;;;;;;18.94;61.14;100560.64;104656;1269;59302;-65
2023/08/12 01:46:57;;;;;;;8.00;4.90;;;;;;;18.92;61.13;100556.83;104684;1264;63328;-61
2023/08/12 01:49:24;;;;;;;8.00;4.90;;;;;;;18.88;61.12;100558.26;104836;1269;60316;-60
2023/08/12 01:51:52;;;;;;;6.90;4.70;;;;;;;18.83;61.13;100555.24;105001;1264;63759;-63
2023/08/12 01:54:19;;;;;;;7.80;4.20;;;;;;;18.83;61.08;100549.77;104559;1264;430023;-60
2023/08/12 01:56:47;;;;;;;8.60;4.90;;;;;;;18.85;61.13;100548.12;104938;1266;60088;-61
2023/08/12 01:59:15;;;;;;;7.10;4.60;;;;;;;18.88;60.99;100548.38;104818;1266;63272;-61
2023/08/12 02:01:43;;;;;;;7.10;4.80;;;;;;;18.85;60.89;100548.18;105028;1266;71250;-60
2023/08/12 02:04:11;;;;;;;9.00;4.90;;;;;;;18.79;60.89;100550.61;104873;1261;63807;-59
2023/08/12 02:06:38;;;;;;;7.40;4.70;;;;;;;18.72;61.01;100550.59;104969;1266;60080;-62
2023/08/12 02:09:06;;;;;;;7.90;4.60;;;;;;;18.68;60.99;100553.08;104924;1266;59731;-61
2023/08/12 02:11:33;;;;;;;7.40;5.00;;;;;;;18.62;61.24;100556.40;104857;1266;64056;-63
2023/08/12 02:14:01;;;;;;;6.90;4.80;;;;;;;18.59;61.37;100564.30;104830;1261;61944;-64
2023/08/12 02:16:28;;;;;;;7.30;5.00;;;;;;;18.60;61.30;100563.05;104932;1266;63655;-67
2023/08/12 02:18:56;;;;;;;9.10;5.00;;;;;;;18.61;61.39;100562.33;105010;1266;59588;-66
2023/08/12 02:21:24;;;;;;;7.20;5.00;;;;;;;18.63;61.26;100562.36;104906;1261;59771;-60
2023/08/12 02:23:51;;;;;;;7.40;5.60;;;;;;;18.60;61.14;100559.64;105420;1266;64108;-62
2023/08/12 02:26:20;;;;;;;7.50;5.30;;;;;;;18.56;61.24;100560.58;104909;1261;61335;-63
2023/08/12 02:28:47;;;;;;;9.40;5.30;;;;;;;18.54;61.31;100562.02;104968;1260;63730;-61
2023/08/12 02:31:16;;;;;;;9.80;5.00;;;;;;;18.56;61.28;100564.98;104903;1261;59748;-62
2023/08/12 02:33:44;;;;;;;10.30;5.80;;;;;;;18.59;61.34;100566.50;105039;1260;59920;-67
2023/08/12 02:36:12;;;;;;;8.00;5.50;;;;;;;18.63;61.39;100564.55;104889;1260;64146;-64
2023/08/12 02:38:39;;;;;;;6.70;4.80;;;;;;;18.68;61.33;100564.17;104765;1261;61362;-63
2023/08/12 02:41:09;;;;;;;9.50;5.10;;;;;;;18.70;61.35;100562.04;106117;1263;64230;-63
2023/08/12 02:43:36;;;;;;;10.80;4.90;;;;;;;18.72;61.24;100566.08;104892;1261;59729;-63
2023/08/12 02:46:04;;;;;;;7.60;5.10;;;;;;;18.75;61.18;100564.65;104909;1266;59560;-61
2023/08/12 02:48:31;;;;;;;6.90;4.80;;;;;;;18.81;61.04;100565.14;104750;1269;64071;-61
2023/08/12 02:50:59;;;;;;;9.70;4.80;;;;;;;18.85;60.82;100563.42;104789;1264;61582;-60
2023/08/12 02:53:26;;;;;;;10.20;5.30;;;;;;;18.84;60.77;100564.75;104819;1264;63762;-61
2023/08/12 02:55:54;;;;;;;7.90;5.70;;;;;;;18.82;60.81;100564.35;104642;1264;59756;-64
2023/08/12 02:58:21;;;;;;;8.90;5.30;;;;;;;18.79;61.05;100564.84;104895;1266;60052;-61
2023/08/12 03:00:49;;;;;;;10.90;5.30;;;;;;;18.78;60.97;100567.20;104648;1264;64074;-59
2023/08/12 03:03:17;;;;;;;7.00;4.60;;;;;;;18.76;61.10;100564.70;104885;1264;61382;-64
2023/08/12 03:05:47;;;;;;;7.20;4.70;;;;;;;18.77;61.20;100568.73;104844;1264;63722;-59
2023/08/12 03:08:14;;;;;;;8.20;5.70;;;;;;;18.76;61.28;100570.77;104795;1264;59654;-60
2023/08/12 03:10:44;;;;;;;7.60;5.70;;;;;;;18.70;61.36;100568.77;104910;1264;59646;-61
2023/08/12 03:13:12;;;;;;;8.10;5.40;;;;;;;18.63;61.56;100565.00;104738;1264;62874;-60
2023/08/12 03:15:40;;;;;;;8.60;5.30;;;;;;;18.54;61.71;100566.98;105329;1260;60528;-70
2023/08/12 03:18:08;;;;;;;7.30;5.00;;;;;;;18.43;61.99;100563.44;105196;1257;62502;-66
2023/08/12 03:20:46;;;;;;;9.30;6.20;;;;;;;18.37;62.29;100567.08;105569;1257;59781;-56
2023/08/12 03:23:14;;;;;;;7.60;5.70;;;;;;;18.35;62.38;100564.88;106138;1255;59634;-61
2023/08/12 03:25:42;;;;;;;9.00;6.00;;;;;;;18.34;62.54;100565.81;105535;1251;64135;-60
2023/08/12 03:28:09;;;;;;;8.90;5.90;;;;;;;18.35;62.65;100567.48;105570;1251;61323;-67
2023/08/12 03:30:38;;;;;;;8.60;6.20;;;;;;;18.35;62.68;100569.08;105650;1256;63716;-62
2023/08/12 03:33:05;;;;;;;9.40;6.00;;;;;;;18.34;62.80;100569.42;105562;1251;60841;-58
2023/08/12 03:35:34;;;;;;;8.30;6.20;;;;;;;18.33;62.87;100569.88;105660;1253;59608;-57
2023/08/12 03:38:01;;;;;;;8.80;5.50;;;;;;;18.35;62.89;100571.61;105530;1257;64111;-59
2023/08/12 03:40:29;;;;;;;9.90;5.60;;;;;;;18.39;62.94;100577.77;105792;1256;61934;-59
2023/08/12 03:42:57;;;;;;;7.60;5.70;;;;;;;18.42;62.85;100577.56;105527;1251;63260;-54
2023/08/12 03:45:25;;;;;;;7.90;5.40;;;;;;;18.48;62.76;100582.31;105631;1251;59729;-52
2023/08/12 03:47:53;;;;;;;9.00;6.40;;;;;;;18.49;62.75;100583.73;105607;1257;59548;-55
2023/08/12 03:50:21;;;;;;;8.20;6.00;;;;;;;18.45;62.93;100583.98;105694;1252;64176;-54
2023/08/12 03:52:49;;;;;;;9.70;7.00;;;;;;;18.41;63.16;100584.23;105613;1256;60796;-55
2023/08/12 03:55:16;;;;;;;9.20;6.40;;;;;;;18.40;63.35;100584.69;105472;1257;62508;-54
2023/08/12 03:57:44;;;;;;;8.10;5.70;;;;;;;18.42;63.38;100586.11;105624;1251;59652;-56
2023/08/12 04:00:12;;;;;;;9.00;6.80;;;;;;;18.47;63.48;100583.64;105398;1251;60491;-56
2023/08/12 04:02:43;;;;;;;12.80;6.00;;;;;;;18.52;63.58;100584.30;105506;1251;64129;-53
2023/08/12 04:05:11;;;;;;;11.30;6.70;;;;;;;18.60;63.68;100582.59;105633;1251;61273;-56
2023/08/12 04:07:39;;;;;;;8.70;6.60;;;;;;;18.65;63.49;100581.77;105513;1257;71544;-53
2023/08/12 04:10:07;;;;;;;12.80;7.10;;;;;;;18.66;63.57;100581.00;105409;1257;59661;-54
2023/08/12 04:12:34;;;;;;;9.70;7.10;;;;;;;18.66;63.58;100580.27;105714;1254;60551;-54
2023/08/12 04:15:04;;;;;;;8.90;6.70;;;;;;;18.68;63.51;100576.01;105504;1255;64194;-54
2023/08/12 04:17:32;;;;;;;8.10;6.30;;;;;;;18.75;63.52;100577.31;105631;1254;63409;-53
2023/08/12 04:20:00;;;;;;;11.80;7.70;;;;;;;18.80;63.15;100577.70;105594;1252;63709;-56
2023/08/12 04:22:28;;;;;;;9.80;7.40;;;;;;;18.79;63.16;100575.07;105497;1256;59621;-55
2023/08/12 04:24:56;;;;;;;10.00;6.70;;;;;;;18.81;63.34;100575.07;105688;1256;59554;-55
2023/08/12 04:27:24;;;;;;;8.70;6.90;;;;;;;18.83;63.41;100577.84;105384;1251;66233;-56
2023/08/12 04:29:51;;;;;;;9.80;7.50;;;;;;;18.90;63.36;100580.33;105563;1251;61372;-55
2023/08/12 04:32:19;;;;;;;8.70;6.30;;;;;;;19.00;63.16;100585.17;105459;1251;63845;-55
2023/08/12 04:34:47;;;;;;;8.20;6.80;;;;;;;19.08;62.95;100580.42;106085;1255;59720;-54
2023/08/12 04:37:14;;;;;;;9.50;7.10;;;;;;;19.13;62.93;100577.02;105332;1257;60370;-55
2023/08/12 04:39:42;;;;;;;8.50;7.10;;;;;;;19.17;62.70;100570.01;105671;1257;64600;-54
2023/08/12 04:42:10;;;;;;;9.50;6.40;;;;;;;19.23;62.55;100569.61;105773;1256;61429;-55
2023/08/12 04:44:38;;;;;;;9.50;7.10;;;;;;;19.28;62.39;100570.27;105517;1255;63734;-53
2023/08/12 04:47:06;;;;;;;8.70;6.50;;;;;;;19.30;62.25;100565.48;105444;1254;59663;-56
2023/08/12 04:49:35;;;;;;;9.20;7.20;;;;;;;19.31;62.41;100565.15;105549;1256;59640;-54
2023/08/12 04:52:03;;;;;;;9.70;6.60;;;;;;;19.33;62.28;100563.52;105347;1257;64169;-55
2023/08/12 04:54:31;;;;;;;10.40;7.30;;;;;;;19.38;62.23;100568.45;105598;1252;61841;-54
2023/08/12 04:56:59;;;;;;;7.60;6.30;;;;;;;19.41;62.11;100570.59;105428;1251;62466;-56
2023/08/12 04:59:27;;;;;;;7.80;6.20;;;;;;;19.46;62.24;100569.70;105530;1251;59755;-55
2023/08/12 05:01:54;;;;;;;8.30;6.10;;;;;;;19.52;62.11;100571.01;105566;1256;59726;-55
2023/08/12 05:04:31;;;;;;;8.90;7.20;;;;;;;19.61;61.95;100565.51;105673;1249;64040;-55
2023/08/12 05:06:59;;;;;;;8.10;6.70;;;;;;;19.70;61.71;100564.14;105458;1257;60228;-58
2023/08/12 05:09:26;;;;;;;9.40;6.80;;;;;;;19.77;61.50;100563.18;105620;1252;63659;-57
2023/08/12 05:11:54;;;;;;;8.30;6.80;;;;;;;19.78;61.07;100565.15;105413;1252;59736;-51
2023/08/12 05:14:22;;;;;;;11.30;7.20;;;;;;;19.78;60.98;100563.30;105701;1254;59626;-51
2023/08/12 05:16:49;;;;;;;8.50;6.50;;;;;;;19.86;61.08;100563.73;105366;1256;64341;-53
2023/08/12 05:19:18;;;;;;;9.20;6.30;;;;;;;19.96;60.86;100561.95;105662;1257;61293;-55
2023/08/12 05:21:45;;;;;;;9.00;7.00;;;;;;;20.06;60.68;100563.35;105346;1257;62429;-55
2023/08/12 05:24:13;;;;;;;10.30;6.70;;;;;;;20.15;60.60;100567.73;105416;1254;59749;-57
2023/08/12 05:26:41;;;;;;;9.30;7.00;;;;;;;20.21;60.36;100573.27;105559;1251;59739;-59
2023/08/12 05:29:09;;;;;;;9.20;6.80;;;;;;;20.26;60.31;100570.45;105596;1252;66807;-58
2023/08/12 05:31:36;;;;;;;9.00;6.60;;;;;;;20.34;60.40;100576.54;105385;1252;61561;-59
2023/08/12 05:34:04;;;;;;;8.70;6.70;;;;;;;20.45;60.21;100572.83;105633;1251;63741;-60
2023/08/12 05:36:32;;;;;;;8.50;6.40;;;;;;;20.54;59.56;100574.20;105681;1257;59748;-60
2023/08/12 05:38:59;;;;;;;14.40;6.60;;;;;;;20.60;59.51;100567.05;105653;1256;59711;-57
2023/08/12 05:41:27;;;;;;;9.80;6.30;;;;;;;20.65;59.67;100566.33;105563;1256;62805;-58
2023/08/12 05:43:55;;;;;;;10.90;6.70;;;;;;;20.70;59.30;100570.84;105590;1255;61356;-55
2023/08/12 05:46:22;;;;;;;8.40;6.50;;;;;;;20.74;58.98;100572.33;105493;1252;63758;-54
2023/08/12 05:48:50;;;;;;;7.80;6.20;;;;;;;20.80;59.04;100568.22;106064;1257;60412;-54
2023/08/12 05:51:17;;;;;;;7.90;5.70;;;;;;;20.91;58.97;100570.34;105545;1256;60552;-54
2023/08/12 05:53:45;;;;;;;9.30;7.00;;;;;;;21.03;58.47;100579.61;105427;1251;73804;-57
2023/08/12 05:56:13;;;;;;;8.50;6.20;;;;;;;21.09;58.26;100581.58;105668;1252;61791;-57
2023/08/12 05:58:41;;;;;;;10.40;6.70;;;;;;;21.13;58.00;100579.79;105386;1254;62422;-57
2023/08/12 06:01:08;;;;;;;9.00;6.40;;;;;;;21.16;58.09;100575.58;105363;1256;60647;-58
2023/08/12 06:03:36;;;;;;;8.10;6.50;;;;;;;21.23;58.19;100570.59;105532;1252;60501;-56
2023/08/12 06:06:04;;;;;;;8.30;6.50;;;;;;;21.36;57.75;100565.92;105428;1251;65012;-53
2023/08/12 06:08:35;;;;;;;9.40;6.30;;;;;;;21.51;57.09;100568.74;105526;1251;61383;-58
2023/08/12 06:11:03;;;;;;;9.50;6.40;;;;;;;21.64;56.75;100570.77;105431;1254;64291;-55
2023/08/12 06:13:30;;;;;;;10.80;6.80;;;;;;;21.73;56.76;100568.42;105496;1252;60565;-54
2023/08/12 06:15:58;;;;;;;8.20;6.60;;;;;;;21.80;56.51;100566.60;105658;1256;60420;-55
2023/08/12 06:18:26;;;;;;;8.30;6.70;;;;;;;21.87;56.26;100558.91;105562;1251;65409;-57
2023/08/12 06:20:54;;;;;;;8.70;6.20;;;;;;;21.95;56.09;100559.02;105571;1252;61403;-56
2023/08/12 06:23:21;;;;;;;9.00;6.00;;;;;;;22.05;55.64;100559.64;106017;1255;65704;-60
2023/08/12 06:25:53;;;;;;;8.00;6.10;;;;;;;22.17;55.52;100561.70;105320;1256;60414;-58
2023/08/12 06:28:21;;;;;;;8.60;6.60;;;;;;;22.27;55.13;100559.45;105889;1252;60523;-56
2023/08/12 06:30:49;;;;;;;7.30;5.80;;;;;;;22.35;55.22;100558.98;105645;1255;63672;-58
2023/08/12 06:33:16;;;;;;;8.10;6.60;;;;;;;22.42;54.93;100558.77;105859;1254;60566;-65
2023/08/12 06:35:44;;;;;;;8.70;5.80;;;;;;;22.49;54.50;100559.86;105347;1251;63691;-59
2023/08/12 06:38:15;;;;;;;8.40;6.40;;;;;;;22.54;54.42;100566.86;105589;1252;60586;-52
2023/08/12 06:40:42;;;;;;;7.60;6.00;;;;;;;22.55;54.11;100564.96;105561;1256;60608;-55
2023/08/12 06:43:10;;;;;;;8.00;5.60;;;;;;;22.55;54.27;100561.25;105470;1252;64871;-57
2023/08/12 06:45:38;;;;;;;7.30;5.80;;;;;;;22.59;54.03;100560.73;105387;1251;70815;-57
2023/08/12 06:48:06;;;;;;;8.30;6.20;;;;;;;22.61;54.13;100559.50;105461;1256;62443;-60
2023/08/12 06:50:33;;;;;;;8.50;5.50;;;;;;;22.62;54.16;100559.27;105697;1252;60555;-57
2023/08/12 06:53:01;;;;;;;11.60;5.90;;;;;;;22.63;53.95;100558.73;105510;1255;60450;-58
2023/08/12 06:55:29;;;;;;;8.00;5.80;;;;;;;22.69;53.61;100563.27;105424;1255;65202;-56
2023/08/12 06:57:56;;;;;;;7.10;4.90;;;;;;;22.75;53.64;100567.02;105174;1256;62842;-56
2023/08/12 07:00:24;;;;;;;7.20;5.40;;;;;;;22.82;53.62;100565.80;105548;1254;71192;-58
2023/08/12 07:02:52;;;;;;;8.80;5.00;;;;;;;22.86;53.46;100567.06;105558;1257;61424;-57
2023/08/12 07:05:19;;;;;;;11.10;5.60;;;;;;;22.83;52.59;100569.45;108315;1253;60119;-53
2023/08/12 07:07:47;;;;;;;7.00;5.10;;;;;;;22.77;52.34;100575.60;105227;1249;64804;-58
2023/08/12 07:10:14;;;;;;;7.40;5.10;;;;;;;22.71;52.19;100572.11;105281;1256;61909;-55
2023/08/12 07:12:42;;;;;;;6.80;5.10;;;;;;;22.66;52.18;100576.09;105207;1254;63696;-54
2023/08/12 07:15:10;;;;;;;8.20;5.60;;;;;;;22.66;52.27;100574.30;105511;1252;60553;-56
2023/08/12 07:17:38;;;;;;;8.30;5.40;;;;;;;22.68;52.47;100577.33;105924;1251;60642;-58
2023/08/12 07:20:06;;;;;;;13.10;5.30;;;;;;;22.72;52.73;100578.39;105611;1255;64924;-60
2023/08/12 07:22:34;;;;;;;9.40;4.60;;;;;;;22.79;52.61;100581.52;105571;1256;61827;-55
2023/08/12 07:25:02;;;;;;;8.90;6.00;;;;;;;22.85;52.13;100584.23;105456;1252;65991;-59
2023/08/12 07:27:29;;;;;;;8.50;5.00;;;;;;;22.90;51.95;100586.70;105717;1255;60525;-57
2023/08/12 07:29:57;;;;;;;9.30;5.70;;;;;;;22.93;52.05;100588.53;105566;1257;60625;-56
2023/08/12 07:32:24;;;;;;;8.60;6.30;;;;;;;22.96;51.67;100597.79;105639;1251;63691;-57
2023/08/12 07:34:52;;;;;;;7.70;5.20;;;;;;;22.96;51.28;100594.45;105580;1256;60357;-57
2023/08/12 07:37:19;;;;;;;8.10;5.90;;;;;;;22.96;51.75;100594.44;105453;1249;63780;-56
2023/08/12 07:39:47;;;;;;;8.10;5.60;;;;;;;22.99;51.67;100591.41;105395;1251;60462;-55
2023/08/12 07:42:14;;;;;;;8.70;5.60;;;;;;;23.02;51.54;100590.67;105564;1256;60448;-56
2023/08/12 07:44:42;;;;;;;9.10;6.30;;;;;;;23.07;51.58;100584.44;105465;1254;64848;-57
2023/08/12 07:47:10;;;;;;;9.70;6.40;;;;;;;23.11;51.62;100584.09;105449;1256;61289;-58
2023/08/12 07:49:38;;;;;;;7.20;5.50;;;;;;;23.13;51.75;100590.95;105466;1257;62557;-56
2023/08/12 07:52:05;;;;;;;8.20;5.50;;;;;;;23.16;51.51;100590.02;105523;1255;60527;-58
2023/08/12 07:54:33;;;;;;;10.60;5.90;;;;;;;23.20;51.70;100593.83;105672;1257;60856;-57
2023/08/12 07:57:00;;;;;;;8.30;5.60;;;;;;;23.23;51.35;100588.43;105289;1253;64948;-58
2023/08/12 07:59:28;;;;;;;9.10;5.40;;;;;;;23.26;51.16;100586.16;105469;1256;61329;-64
2023/08/12 08:01:56;;;;;;;7.70;5.90;;;;;;;23.28;50.94;100589.43;105610;1255;63750;-72
2023/08/12 08:04:24;;;;;;;8.10;5.60;;;;;;;23.29;50.91;100589.36;105563;1252;60525;-64
2023/08/12 08:06:51;;;;;;;7.10;5.90;;;;;;;23.32;51.13;100589.36;105444;1251;60472;-63
2023/08/12 08:09:19;;;;;;;8.10;5.80;;;;;;;23.41;51.14;100595.74;105458;1254;65008;-69
2023/08/12 08:11:46;;;;;;;8.00;5.90;;;;;;;23.48;50.56;100594.90;105493;1257;61501;-64
2023/08/12 08:14:14;;;;;;;8.80;5.60;;;;;;;23.51;51.01;100584.16;105438;1256;63771;-64
2023/08/12 08:16:42;;;;;;;9.90;5.80;;;;;;;23.64;50.89;100581.89;105490;1251;60475;-62
2023/08/12 08:19:09;;;;;;;10.50;5.10;;;;;;;23.75;50.46;100582.89;105573;1256;60444;-66
2023/08/12 08:21:39;;;;;;;9.40;5.90;;;;;;;23.86;50.40;100588.63;105571;1250;64866;-64
2023/08/12 08:24:08;;;;;;;10.30;5.40;;;;;;;23.95;49.51;100584.69;105396;1255;61869;-65
2023/08/12 08:26:35;;;;;;;8.00;5.10;;;;;;;24.02;48.81;100585.38;105318;1256;63726;-62
2023/08/12 08:29:04;;;;;;;7.30;4.60;;;;;;;24.05;48.92;100581.90;105481;1256;60491;-61
2023/08/12 08:31:31;;;;;;;10.60;4.90;;;;;;;24.11;49.40;100577.39;105296;1257;61174;-61
2023/08/12 08:33:59;;;;;;;7.30;5.20;;;;;;;24.20;49.14;100577.95;105248;1256;67338;-59
2023/08/12 08:36:27;;;;;;;11.60;5.50;;;;;;;24.28;48.53;100580.29;106792;1257;61560;-58
2023/08/12 08:38:55;;;;;;;7.40;5.00;;;;;;;24.36;48.77;100573.12;105409;1254;64199;-62
2023/08/12 08:41:23;;;;;;;8.20;5.00;;;;;;;24.48;48.61;100574.88;105479;1257;60555;-60
2023/08/12 08:43:52;;;;;;;8.20;4.70;;;;;;;24.57;47.87;100570.83;106246;1251;60449;-61
2023/08/12 08:46:20;;;;;;;9.10;5.60;;;;;;;24.63;47.96;100567.87;105508;1251;63627;-59
2023/08/12 08:48:48;;;;;;;7.90;5.00;;;;;;;24.71;47.55;100563.92;105380;1252;61415;-59
2023/08/12 08:51:17;;;;;;;8.70;5.10;;;;;;;24.78;47.66;100565.48;105504;1255;64379;-61
2023/08/12 08:53:45;;;;;;;6.80;4.80;;;;;;;24.82;47.39;100571.17;105346;1252;60518;-60
2023/08/12 08:56:12;;;;;;;10.20;4.80;;;;;;;24.80;47.32;100567.61;105341;1260;60440;-57
2023/08/12 08:58:42;;;;;;;6.90;4.90;;;;;;;24.77;47.05;100570.20;106509;1256;64865;-58
2023/08/12 09:01:10;;;;;;;8.90;5.40;;;;;;;24.74;47.40;100569.53;105466;1255;61450;-61
2023/08/12 09:03:38;;;;;;;6.50;4.70;;;;;;;24.71;47.63;100571.36;105633;1255;63684;-60
2023/08/12 09:06:06;;;;;;;9.10;5.20;;;;;;;24.71;47.69;100573.27;106091;1255;59242;-57
2023/08/12 09:08:34;;;;;;;8.10;5.90;;;;;;;24.71;47.52;100571.50;105480;1251;60605;-61
2023/08/12 09:11:02;;;;;;;7.00;4.70;;;;;;;24.73;47.60;100573.00;105290;1257;64952;-61
2023/08/12 09:13:29;;;;;;;12.40;5.30;;;;;;;24.74;47.18;100577.70;106438;1254;61395;-58
2023/08/12 09:15:57;;;;;;;8.80;4.90;;;;;;;24.72;46.82;100577.48;105635;1257;66876;-57
2023/08/12 09:18:25;;;;;;;10.10;4.90;;;;;;;24.71;46.77;100576.88;105457;1257;60613;-60
2023/08/12 09:20:53;;;;;;;7.10;4.90;;;;;;;24.71;46.56;100577.59;106021;1251;60597;-61
2023/08/12 09:23:21;;;;;;;8.40;4.00;;;;;;;24.73;46.12;100582.30;105441;1260;63743;-59
2023/08/12 09:25:48;;;;;;;10.50;5.20;;;;;;;24.78;45.93;100584.80;108310;1255;61397;-61
2023/08/12 09:28:16;;;;;;;7.80;5.30;;;;;;;24.84;45.23;100590.04;105238;1255;62782;-55
2023/08/12 09:30:50;;;;;;;7.50;5.00;;;;;;;24.90;44.93;100591.18;105351;1257;60747;-63
2023/08/12 09:33:23;;;;;;;6.50;4.20;;;;;;;24.94;44.24;100592.24;105667;1253;60436;-59
2023/08/12 09:35:51;;;;;;;9.10;4.60;;;;;;;24.95;44.28;100593.94;105382;1255;64856;-60
2023/08/12 09:38:19;;;;;;;5.90;4.10;;;;;;;24.94;44.84;100593.98;105530;1252;61337;-59
2023/08/12 09:40:47;;;;;;;8.00;4.90;;;;;;;24.97;44.72;100591.32;105038;1252;63781;-69
2023/08/12 09:43:16;;;;;;;10.30;5.60;;;;;;;24.98;44.42;100587.39;105203;1256;60428;-63
2023/08/12 09:45:44;;;;;;;8.80;6.30;;;;;;;25.01;44.48;100589.53;105410;1257;60361;-61
2023/08/12 09:48:12;;;;;;;9.90;7.70;;;;;;;25.07;44.20;100590.00;105352;1258;64926;-60
2023/08/12 09:50:43;;;;;;;6.10;4.30;;;;;;;25.10;44.49;100591.06;105493;1256;61300;-59
2023/08/12 09:53:11;;;;;;;10.50;5.10;;;;;;;25.12;44.21;100591.88;105370;1251;63755;-57
2023/08/12 09:55:38;;;;;;;7.60;4.10;;;;;;;25.12;44.47;100586.54;105418;1257;62125;-57
2023/08/12 09:58:07;;;;;;;7.30;4.20;;;;;;;25.15;44.44;100591.91;106574;1255;60452;-61
2023/08/12 10:00:35;;;;;;;7.70;4.20;;;;;;;25.13;43.72;100602.56;105561;1257;63639;-62
2023/08/12 10:03:04;;;;;;;8.80;4.70;;;;;;;25.10;43.73;100590.95;105392;1258;61314;-58
2023/08/12 10:05:32;;;;;;;6.90;4.20;;;;;;;25.10;44.09;100589.48;105693;1256;63736;-59
2023/08/12 10:08:03;;;;;;;6.50;4.00;;;;;;;25.15;44.42;100587.55;105556;1251;61190;-64
2023/08/12 10:10:32;;;;;;;6.70;4.20;;;;;;;25.24;44.32;100586.48;105385;1257;60438;-65
2023/08/12 10:13:00;;;;;;;8.40;4.50;;;;;;;25.34;43.82;100586.46;105705;1252;63780;-61
2023/08/12 10:15:28;;;;;;;7.20;4.50;;;;;;;25.44;43.86;100576.62;105458;1251;61462;-61
2023/08/12 10:17:55;;;;;;;12.60;4.10;;;;;;;25.58;43.71;100573.09;105899;1256;64307;-57
2023/08/12 10:20:24;;;;;;;6.90;4.20;;;;;;;25.75;42.71;100571.23;105873;1250;60580;-59
2023/08/12 10:22:52;;;;;;;11.60;5.30;;;;;;;25.91;42.66;100558.48;105728;1257;60368;-59
2023/08/12 10:25:22;;;;;;;6.90;3.90;;;;;;;26.08;42.80;100559.80;105672;1251;63657;-60
2023/08/12 10:27:50;;;;;;;6.30;4.00;;;;;;;26.25;43.00;100560.18;105572;1257;61571;-60
2023/08/12 10:30:17;;;;;;;6.20;4.20;;;;;;;26.37;41.61;100568.65;105665;1251;63750;-67
2023/08/12 10:32:45;;;;;;;8.10;4.40;;;;;;;26.42;40.99;100568.61;105471;1258;60526;-58
2023/08/12 10:35:13;;;;;;;6.30;3.90;;;;;;;26.43;40.29;100565.95;105433;1256;60448;-59
2023/08/12 10:37:40;;;;;;;7.70;4.40;;;;;;;26.46;39.92;100557.27;105474;1251;64896;-56
2023/08/12 10:40:22;;;;;;;8.80;5.90;;;;;;;26.51;39.76;100560.64;105769;1251;61444;-62
2023/08/12 10:42:50;;;;;;;6.10;4.00;;;;;;;26.56;39.25;100561.86;105603;1257;63637;-65
2023/08/12 10:45:18;;;;;;;10.50;5.10;;;;;;;26.60;38.51;100564.64;105670;1256;60552;-59
2023/08/12 10:47:54;;;;;;;6.50;3.70;;;;;;;26.63;38.41;100567.81;105929;1251;60472;-63
2023/08/12 10:50:22;;;;;;;7.00;4.60;;;;;;;26.69;38.96;100562.66;105742;1252;73393;-58
2023/08/12 10:52:53;;;;;;;11.40;6.40;;;;;;;26.75;38.72;100567.46;105676;1257;61942;-60
2023/08/12 10:55:21;;;;;;;8.20;4.70;;;;;;;26.76;38.60;100564.38;105645;1252;71347;-57
2023/08/12 10:57:50;;;;;;;7.10;4.90;;;;;;;26.76;38.59;100568.20;105325;1257;60645;-61
2023/08/12 11:00:26;;;;;;;8.10;4.40;;;;;;;26.74;38.95;100570.58;105533;1255;60555;-64
2023/08/12 11:02:56;;;;;;;6.00;3.90;;;;;;;26.72;38.99;100574.02;105536;1257;64897;-58
2023/08/12 11:05:24;;;;;;;7.30;4.50;;;;;;;26.69;39.58;100573.89;105449;1255;69649;-59
2023/08/12 11:07:56;;;;;;;6.60;4.40;;;;;;;26.70;39.48;100571.65;105764;1251;63711;-57
2023/08/12 11:10:25;;;;;;;8.80;5.60;;;;;;;26.75;39.35;100572.56;105557;1257;60552;-64
2023/08/12 11:12:56;;;;;;;7.00;4.60;;;;;;;26.83;39.03;100571.27;105422;1251;60341;-70
2023/08/12 11:15:45;;;;;;;6.50;4.50;;;;;;;26.93;38.37;100575.44;105653;1258;63639;-68
2023/08/12 11:18:16;;;;;;;6.80;3.40;;;;;;;27.03;38.23;100574.68;105449;1251;61313;-65
2023/08/12 11:20:43;;;;;;;8.20;4.90;;;;;;;27.10;38.56;100572.45;105858;1251;63773;-73
2023/08/12 11:23:11;;;;;;;12.10;6.80;;;;;;;27.18;38.50;100576.71;105466;1254;60858;-65